createdAt,value
2023-02-02T00:00:21.213Z,59.44
2023-02-02T00:01:24.133Z,59.54
2023-02-02T00:02:25.972Z,59.60
2023-02-02T00:03:27.839Z,59.18
2023-02-02T00:04:35.477Z,59.11
2023-02-02T00:05:37.788Z,60.02
2023-02-02T00:06:39.600Z,59.79
2023-02-02T00:07:41.382Z,59.64
2023-02-02T00:08:43.460Z,59.89
2023-02-02T00:09:45.384Z,59.24
2023-02-02T00:10:48.058Z,59.25
2023-02-02T00:11:51.212Z,59.91
2023-02-02T00:12:54.099Z,59.09
2023-02-02T00:13:55.946Z,59.17
2023-02-02T00:14:58.276Z,59.51
2023-02-02T00:16:41.087Z,59.58
2023-02-02T00:17:42.981Z,59.74
2023-02-02T00:18:44.784Z,59.84
2023-02-02T00:19:46.918Z,58.80
2023-02-02T00:20:51.736Z,59.15
2023-02-02T00:21:55.150Z,59.97
2023-02-02T00:22:57.544Z,59.53
2023-02-02T00:23:59.397Z,59.91
2023-02-02T00:25:01.192Z,59.93
2023-02-02T00:26:03.123Z,59.12
2023-02-02T00:27:05.241Z,60.01
2023-02-02T00:28:07.101Z,59.98
2023-02-02T00:29:17.630Z,59.85
2023-02-02T00:30:19.721Z,60.19
2023-02-02T00:31:21.949Z,59.51
2023-02-02T00:32:24.002Z,59.88
2023-02-02T00:33:25.780Z,59.72
2023-02-02T00:34:27.557Z,59.61
2023-02-02T00:35:29.688Z,59.74
2023-02-02T00:36:31.612Z,59.81
2023-02-02T00:37:33.839Z,59.66
2023-02-02T00:38:37.881Z,59.23
2023-02-02T00:39:39.793Z,59.75
2023-02-02T00:40:41.582Z,59.58
2023-02-02T00:41:43.370Z,59.72
2023-02-02T00:42:49.253Z,59.52
2023-02-02T00:44:11.007Z,59.54
2023-02-02T00:45:17.270Z,59.58
2023-02-02T00:46:19.165Z,59.45
2023-02-02T00:47:20.991Z,59.75
2023-02-02T00:48:23.187Z,60.13
2023-02-02T00:49:25.402Z,60.22
2023-02-02T00:50:27.405Z,59.24
2023-02-02T00:51:29.504Z,60.47
2023-02-02T00:52:31.313Z,60.17
2023-02-02T00:53:33.193Z,60.16
2023-02-02T00:54:35.044Z,60.25
2023-02-02T00:55:36.963Z,60.01
2023-02-02T00:56:38.868Z,59.75
2023-02-02T00:57:41.434Z,59.39
2023-02-02T00:58:43.439Z,59.14
2023-02-02T00:59:45.286Z,59.79
2023-02-02T01:00:47.219Z,59.39
2023-02-02T01:01:49.341Z,59.25
2023-02-02T01:04:21.794Z,58.96
2023-02-02T01:05:24.397Z,59.50
2023-02-02T01:06:26.570Z,59.10
2023-02-02T01:07:28.633Z,60.07
2023-02-02T01:08:30.593Z,59.73
2023-02-02T01:09:32.496Z,59.65
2023-02-02T01:10:35.179Z,59.43
2023-02-02T01:11:37.765Z,60.08
2023-02-02T01:12:40.028Z,59.19
2023-02-02T01:13:42.054Z,59.13
2023-02-02T01:14:44.088Z,59.80
2023-02-02T01:15:46.054Z,59.11
2023-02-02T01:16:48.493Z,59.96
2023-02-02T01:17:50.615Z,59.48
2023-02-02T01:18:53.236Z,60.08
2023-02-02T01:19:55.198Z,59.33
2023-02-02T01:21:09.057Z,59.99
2023-02-02T01:22:11.054Z,59.85
2023-02-02T01:23:13.109Z,59.38
2023-02-02T01:24:15.311Z,59.97
2023-02-02T01:25:17.525Z,60.07
2023-02-02T01:26:19.481Z,59.99
2023-02-02T01:27:21.551Z,60.01
2023-02-02T01:28:24.334Z,60.04
2023-02-02T01:29:26.390Z,60.30
2023-02-02T01:30:28.456Z,60.00
2023-02-02T01:31:30.412Z,60.42
2023-02-02T01:32:32.390Z,59.95
2023-02-02T01:33:34.411Z,60.36
2023-02-02T01:34:36.722Z,60.46
2023-02-02T01:35:48.093Z,60.78
2023-02-02T01:36:50.109Z,59.88
2023-02-02T01:37:52.307Z,60.02
2023-02-02T01:38:55.347Z,60.72
2023-02-02T01:39:57.332Z,60.35
2023-02-02T01:40:59.832Z,60.34
2023-02-02T01:42:01.981Z,60.68
2023-02-02T01:43:04.548Z,60.18
2023-02-02T01:44:27.278Z,60.65
2023-02-02T01:45:29.878Z,60.60
2023-02-02T01:46:32.961Z,60.58
2023-02-02T01:47:47.930Z,60.14
2023-02-02T01:49:15.746Z,60.94
2023-02-02T01:50:19.603Z,60.15
2023-02-02T01:51:24.844Z,60.38
2023-02-02T01:52:29.666Z,59.81
2023-02-02T01:53:32.910Z,60.13
2023-02-02T01:54:38.720Z,59.86
2023-02-02T01:55:42.470Z,59.80
2023-02-02T01:56:51.877Z,60.30
2023-02-02T01:58:09.061Z,60.17
2023-02-02T01:59:14.320Z,60.42
2023-02-02T02:00:18.953Z,60.55
2023-02-02T02:01:20.906Z,60.21
2023-02-02T02:02:25.066Z,60.29
2023-02-02T02:03:29.932Z,60.83
2023-02-02T02:04:32.835Z,60.16
2023-02-02T02:05:52.270Z,60.11
2023-02-02T02:06:54.378Z,60.58
2023-02-02T02:08:04.284Z,59.98
2023-02-02T02:09:07.479Z,60.23
2023-02-02T02:10:10.046Z,60.65
2023-02-02T02:11:12.007Z,60.74
2023-02-02T02:12:15.703Z,60.88
2023-02-02T02:13:19.494Z,60.26
2023-02-02T02:14:41.218Z,60.35
2023-02-02T02:16:20.100Z,60.08
2023-02-02T02:18:00.611Z,60.95
2023-02-02T02:19:36.846Z,60.23
2023-02-02T02:21:30.274Z,61.07
2023-02-02T02:23:22.867Z,61.07
2023-02-02T02:25:03.003Z,61.05
2023-02-02T02:26:36.668Z,60.55
2023-02-02T02:28:11.274Z,60.49
2023-02-02T02:29:50.628Z,60.38
2023-02-02T02:31:02.136Z,60.45
2023-02-02T02:32:13.028Z,60.25
2023-02-02T02:33:40.855Z,60.50
2023-02-02T02:34:53.546Z,60.53
2023-02-02T02:36:07.598Z,61.08
2023-02-02T02:37:23.267Z,60.45
2023-02-02T02:38:38.288Z,61.32
2023-02-02T02:39:49.162Z,60.54
2023-02-02T02:41:03.767Z,61.35
2023-02-02T02:42:13.777Z,60.45
2023-02-02T02:43:19.857Z,61.04
2023-02-02T02:44:23.086Z,60.80
2023-02-02T02:45:28.321Z,60.14
2023-02-02T02:46:31.188Z,60.60
2023-02-02T02:47:35.092Z,60.44
2023-02-02T02:48:37.457Z,61.13
2023-02-02T02:49:43.935Z,60.52
2023-02-02T02:50:45.943Z,61.40
2023-02-02T02:51:49.518Z,61.32
2023-02-02T02:53:00.738Z,61.35
2023-02-02T02:54:03.306Z,60.69
2023-02-02T02:55:07.355Z,60.80
2023-02-02T02:56:22.753Z,60.85
2023-02-02T02:57:39.863Z,60.85
2023-02-02T02:58:50.356Z,61.20
2023-02-02T03:00:11.411Z,61.31
2023-02-02T03:01:32.228Z,61.33
2023-02-02T03:02:42.757Z,60.94
2023-02-02T03:04:12.969Z,60.71
2023-02-02T03:05:20.749Z,60.78
2023-02-02T03:06:34.632Z,61.53
2023-02-02T03:07:43.637Z,61.11
2023-02-02T03:09:00.919Z,60.97
2023-02-02T03:10:06.639Z,61.65
2023-02-02T03:11:11.547Z,61.04
2023-02-02T03:12:16.051Z,61.43
2023-02-02T03:13:18.447Z,61.27
2023-02-02T03:14:20.575Z,61.19
2023-02-02T03:15:23.057Z,61.47
2023-02-02T03:16:25.144Z,61.91
2023-02-02T03:17:28.387Z,61.13
2023-02-02T03:18:33.030Z,61.64
2023-02-02T03:19:35.196Z,60.95
2023-02-02T03:20:37.328Z,61.31
2023-02-02T03:21:39.269Z,60.97
2023-02-02T03:22:41.169Z,61.57
2023-02-02T03:23:43.167Z,61.63
2023-02-02T03:24:45.138Z,60.97
2023-02-02T03:25:47.994Z,60.95
2023-02-02T03:26:50.078Z,61.99
2023-02-02T03:27:52.826Z,62.10
2023-02-02T03:28:57.540Z,62.35
2023-02-02T03:30:00.049Z,62.40
2023-02-02T03:31:02.596Z,61.38
2023-02-02T03:32:04.947Z,62.19
2023-02-02T03:33:07.518Z,62.50
2023-02-02T03:34:09.616Z,62.33
2023-02-02T03:35:11.612Z,61.74
2023-02-02T03:36:13.769Z,62.02
2023-02-02T03:37:16.440Z,61.88
2023-02-02T03:38:18.434Z,62.06
2023-02-02T03:39:20.413Z,62.46
2023-02-02T03:40:22.426Z,61.66
2023-02-02T03:41:25.552Z,61.61
2023-02-02T03:42:27.607Z,62.29
2023-02-02T03:43:29.495Z,62.14
2023-02-02T03:44:31.492Z,61.71
2023-02-02T03:45:35.590Z,62.39
2023-02-02T03:46:37.673Z,62.09
2023-02-02T03:47:39.732Z,61.86
2023-02-02T03:48:41.997Z,61.86
2023-02-02T03:49:44.039Z,62.08
2023-02-02T03:50:46.119Z,61.67
2023-02-02T03:51:48.391Z,62.67
2023-02-02T03:52:50.467Z,62.32
2023-02-02T03:53:52.617Z,62.55
2023-02-02T03:54:54.858Z,61.82
2023-02-02T03:55:56.845Z,62.08
2023-02-02T03:56:58.801Z,62.63
2023-02-02T03:58:00.742Z,62.17
2023-02-02T03:59:02.916Z,62.71
2023-02-02T04:00:05.624Z,62.04
2023-02-02T04:01:11.677Z,61.99
2023-02-02T04:02:13.691Z,62.16
2023-02-02T04:03:15.651Z,62.75
2023-02-02T04:04:17.760Z,62.26
2023-02-02T04:05:19.799Z,62.64
2023-02-02T04:06:22.330Z,62.48
2023-02-02T04:07:24.543Z,62.67
2023-02-02T04:08:28.875Z,61.83
2023-02-02T04:09:33.261Z,62.21
2023-02-02T04:10:35.241Z,62.43
2023-02-02T04:11:38.862Z,62.94
2023-02-02T04:12:41.430Z,62.45
2023-02-02T04:13:46.123Z,62.71
2023-02-02T04:14:48.210Z,62.19
2023-02-02T04:15:58.113Z,62.45
2023-02-02T04:17:00.153Z,62.06
2023-02-02T04:18:02.251Z,62.57
2023-02-02T04:19:05.269Z,62.98
2023-02-02T04:20:07.803Z,62.72
2023-02-02T04:21:09.851Z,62.84
2023-02-02T04:22:11.942Z,62.25
2023-02-02T04:23:14.400Z,62.15
2023-02-02T04:24:16.704Z,62.12
2023-02-02T04:25:18.618Z,62.84
2023-02-02T04:26:20.936Z,62.97
2023-02-02T04:27:23.387Z,62.84
2023-02-02T04:28:26.688Z,62.52
2023-02-02T04:29:28.618Z,62.47
2023-02-02T04:30:30.892Z,62.35
2023-02-02T04:31:33.142Z,62.75
2023-02-02T04:32:36.350Z,62.50
2023-02-02T04:33:38.240Z,62.22
2023-02-02T04:34:40.307Z,62.92
2023-02-02T04:35:45.663Z,62.19
2023-02-02T04:36:47.818Z,62.17
2023-02-02T04:37:49.805Z,61.82
2023-02-02T04:38:53.023Z,62.80
2023-02-02T04:39:55.541Z,62.45
2023-02-02T04:41:00.024Z,62.62
2023-02-02T04:42:02.032Z,62.03
2023-02-02T04:43:06.151Z,62.61
2023-02-02T04:44:17.050Z,62.18
2023-02-02T04:45:19.106Z,62.75
2023-02-02T04:46:21.066Z,62.36
2023-02-02T04:47:22.957Z,62.42
2023-02-02T04:48:25.052Z,61.81
2023-02-02T04:49:27.124Z,61.60
2023-02-02T04:50:29.658Z,61.88
2023-02-02T04:51:31.829Z,61.89
2023-02-02T04:52:33.990Z,61.55
2023-02-02T04:53:36.580Z,61.63
2023-02-02T04:54:38.850Z,61.19
2023-02-02T04:55:40.937Z,60.76
2023-02-02T04:56:42.962Z,60.08
2023-02-02T04:57:44.993Z,60.75
2023-02-02T04:58:49.670Z,59.82
2023-02-02T04:59:51.683Z,59.54
2023-02-02T05:00:53.757Z,59.97
2023-02-02T05:01:59.742Z,59.53
2023-02-02T05:03:01.736Z,60.13
2023-02-02T05:04:03.861Z,59.92
2023-02-02T05:05:10.594Z,59.17
2023-02-02T05:06:15.548Z,58.99
2023-02-02T05:07:18.094Z,59.25
2023-02-02T05:08:20.039Z,60.27
2023-02-02T05:09:22.208Z,59.00
2023-02-02T05:10:24.230Z,59.08
2023-02-02T05:11:26.192Z,59.12
2023-02-02T05:12:30.812Z,58.30
2023-02-02T05:13:32.882Z,58.03
2023-02-02T05:14:34.900Z,58.88
2023-02-02T05:15:36.914Z,58.43
2023-02-02T05:16:39.847Z,57.88
2023-02-02T05:17:44.159Z,58.89
2023-02-02T05:18:51.727Z,59.11
2023-02-02T05:19:53.596Z,58.76
2023-02-02T05:20:55.573Z,60.00
2023-02-02T05:21:57.540Z,60.34
2023-02-02T05:22:59.494Z,59.86
2023-02-02T05:24:03.048Z,59.14
2023-02-02T05:25:06.945Z,59.46
2023-02-02T05:26:16.014Z,59.29
2023-02-02T05:27:17.975Z,58.98
2023-02-02T05:28:21.156Z,59.35
2023-02-02T05:29:23.145Z,59.19
2023-02-02T05:30:25.197Z,59.67
2023-02-02T05:31:27.573Z,59.51
2023-02-02T05:32:29.963Z,59.43
2023-02-02T05:33:32.528Z,59.74
2023-02-02T05:34:34.435Z,59.84
2023-02-02T05:35:36.484Z,59.27
2023-02-02T05:36:38.426Z,59.16
2023-02-02T05:37:43.373Z,59.16
2023-02-02T05:38:45.429Z,59.19
2023-02-02T05:39:47.418Z,58.81
2023-02-02T05:40:50.025Z,58.66
2023-02-02T05:41:54.377Z,58.95
2023-02-02T05:42:56.312Z,58.02
2023-02-02T05:44:02.045Z,58.03
2023-02-02T05:45:04.290Z,57.73
2023-02-02T05:46:06.496Z,57.98
2023-02-02T05:47:09.526Z,57.62
2023-02-02T05:48:14.995Z,57.97
2023-02-02T05:49:17.123Z,57.78
2023-02-02T05:50:19.245Z,57.85
2023-02-02T05:51:33.719Z,58.31
2023-02-02T05:52:38.513Z,57.82
2023-02-02T05:53:40.625Z,58.36
2023-02-02T05:54:42.558Z,58.10
2023-02-02T05:55:47.003Z,58.02
2023-02-02T05:56:50.955Z,58.20
2023-02-02T05:57:52.882Z,57.87
2023-02-02T05:58:55.126Z,58.89
2023-02-02T05:59:57.190Z,58.48
2023-02-02T06:00:59.127Z,59.09
2023-02-02T06:02:01.297Z,58.75
2023-02-02T06:03:05.392Z,58.98
2023-02-02T06:04:07.599Z,59.10
2023-02-02T06:05:09.944Z,59.53
2023-02-02T06:06:13.028Z,59.43
2023-02-02T06:07:15.063Z,59.94
2023-02-02T06:08:17.089Z,59.77
2023-02-02T06:09:19.312Z,59.95
2023-02-02T06:10:21.223Z,59.67
2023-02-02T06:11:23.323Z,60.05
2023-02-02T06:12:25.488Z,59.77
2023-02-02T06:13:27.558Z,60.15
2023-02-02T06:14:29.704Z,59.42
2023-02-02T06:15:33.246Z,60.01
2023-02-02T06:16:35.390Z,60.40
2023-02-02T06:17:37.464Z,60.01
2023-02-02T06:18:39.502Z,60.25
2023-02-02T06:19:41.460Z,59.71
2023-02-02T06:20:43.518Z,60.08
2023-02-02T06:21:45.513Z,60.41
2023-02-02T06:22:48.669Z,59.88
2023-02-02T06:23:51.587Z,60.62
2023-02-02T06:24:53.657Z,60.13
2023-02-02T06:25:55.668Z,60.03
2023-02-02T06:26:57.650Z,60.89
2023-02-02T06:28:01.060Z,60.65
2023-02-02T06:29:03.204Z,61.13
2023-02-02T06:30:05.486Z,60.64
2023-02-02T06:31:11.292Z,61.11
2023-02-02T06:32:13.392Z,60.95
2023-02-02T06:33:15.692Z,60.05
2023-02-02T06:34:17.800Z,60.95
2023-02-02T06:35:20.404Z,60.17
2023-02-02T06:36:23.036Z,60.50
2023-02-02T06:37:24.997Z,60.87
2023-02-02T06:38:27.171Z,60.08
2023-02-02T06:39:29.259Z,60.39
2023-02-02T06:40:31.389Z,60.55
2023-02-02T06:41:35.510Z,60.66
2023-02-02T06:42:37.703Z,60.67
2023-02-02T06:43:39.859Z,60.81
2023-02-02T06:44:41.845Z,60.43
2023-02-02T06:45:43.847Z,61.31
2023-02-02T06:46:45.721Z,61.27
2023-02-02T06:47:47.638Z,60.45
2023-02-02T06:48:49.804Z,60.46
2023-02-02T06:49:51.842Z,60.89
2023-02-02T06:50:54.373Z,61.11
2023-02-02T06:51:56.375Z,61.22
2023-02-02T06:52:58.341Z,61.34
2023-02-02T06:54:00.350Z,60.63
2023-02-02T06:55:02.391Z,60.97
2023-02-02T06:56:07.559Z,61.36
2023-02-02T06:57:16.695Z,61.41
2023-02-02T06:58:18.888Z,60.91
2023-02-02T06:59:20.839Z,61.65
2023-02-02T07:00:22.946Z,61.61
2023-02-02T07:01:24.919Z,61.56
2023-02-02T07:02:27.151Z,61.10
2023-02-02T07:03:31.296Z,60.74
2023-02-02T07:04:33.182Z,61.31
2023-02-02T07:05:35.089Z,61.39
2023-02-02T07:06:37.029Z,61.21
2023-02-02T07:07:39.033Z,61.40
2023-02-02T07:08:41.229Z,61.09
2023-02-02T07:09:43.390Z,60.94
2023-02-02T07:11:13.314Z,61.08
2023-02-02T07:12:07.456Z,60.56
2023-02-02T07:13:09.342Z,60.75
2023-02-02T07:14:12.239Z,61.25
2023-02-02T07:15:14.289Z,61.09
2023-02-02T07:16:17.763Z,60.39
2023-02-02T07:17:22.825Z,60.47
2023-02-02T07:18:24.860Z,60.97
2023-02-02T07:19:27.027Z,60.72
2023-02-02T07:20:29.662Z,61.15
2023-02-02T07:21:36.205Z,61.34
2023-02-02T07:22:41.894Z,61.53
2023-02-02T07:23:43.917Z,60.77
2023-02-02T07:24:45.863Z,61.03
2023-02-02T07:25:47.994Z,60.81
2023-02-02T07:26:50.060Z,61.27
2023-02-02T07:27:55.570Z,61.18
2023-02-02T07:28:57.624Z,61.97
2023-02-02T07:29:59.723Z,61.99
2023-02-02T07:31:12.369Z,61.72
2023-02-02T07:32:14.471Z,61.35
2023-02-02T07:33:16.395Z,61.54
2023-02-02T07:34:18.512Z,62.12
2023-02-02T07:35:20.419Z,62.55
2023-02-02T07:36:24.588Z,62.07
2023-02-02T07:37:26.736Z,62.55
2023-02-02T07:38:28.695Z,62.23
2023-02-02T07:39:30.654Z,62.38
2023-02-02T07:40:32.843Z,62.38
2023-02-02T07:41:37.137Z,61.46
2023-02-02T07:42:39.511Z,62.76
2023-02-02T07:43:41.842Z,62.49
2023-02-02T07:44:43.793Z,61.77
2023-02-02T07:45:45.892Z,61.63
2023-02-02T07:46:48.203Z,61.80
2023-02-02T07:47:56.316Z,62.42
2023-02-02T07:48:58.373Z,62.08
2023-02-02T07:50:00.271Z,62.27
2023-02-02T07:51:03.822Z,62.21
2023-02-02T07:52:05.933Z,62.02
2023-02-02T07:53:08.002Z,62.17
2023-02-02T07:54:10.245Z,62.06
2023-02-02T07:55:14.742Z,61.91
2023-02-02T07:56:19.777Z,62.25
2023-02-02T07:57:21.734Z,62.53
2023-02-02T07:58:23.636Z,62.68
2023-02-02T07:59:25.862Z,62.32
2023-02-02T08:00:28.467Z,61.97
2023-02-02T08:01:30.573Z,63.03
2023-02-02T08:02:32.747Z,63.04
2023-02-02T08:03:36.141Z,63.21
2023-02-02T08:04:38.099Z,62.81
2023-02-02T08:05:40.131Z,62.79
2023-02-02T08:06:45.143Z,63.22
2023-02-02T08:07:48.612Z,63.13
2023-02-02T08:08:51.101Z,63.66
2023-02-02T08:09:53.036Z,63.86
2023-02-02T08:10:55.068Z,62.70
2023-02-02T08:12:01.827Z,63.56
2023-02-02T08:13:03.991Z,63.67
2023-02-02T08:14:06.617Z,63.82
2023-02-02T08:15:09.262Z,64.41
2023-02-02T08:16:12.578Z,64.46
2023-02-02T08:17:14.750Z,64.05
2023-02-02T08:18:17.265Z,64.99
2023-02-02T08:19:19.431Z,65.08
2023-02-02T08:20:21.580Z,64.96
2023-02-02T08:21:23.848Z,64.76
2023-02-02T08:22:25.816Z,65.12
2023-02-02T08:23:28.200Z,65.07
2023-02-02T08:24:30.107Z,64.52
2023-02-02T08:25:32.266Z,64.51
2023-02-02T08:26:34.411Z,63.97
2023-02-02T08:27:37.922Z,65.45
2023-02-02T08:28:41.660Z,64.93
2023-02-02T08:29:43.892Z,64.72
2023-02-02T08:30:46.635Z,64.91
2023-02-02T08:31:48.744Z,64.83
2023-02-02T08:32:50.899Z,64.67
2023-02-02T08:33:58.636Z,64.72
2023-02-02T08:35:00.877Z,65.06
2023-02-02T08:36:04.286Z,64.61
2023-02-02T08:37:06.458Z,65.31
2023-02-02T08:38:08.541Z,65.07
2023-02-02T08:39:13.088Z,65.65
2023-02-02T08:40:15.311Z,65.45
2023-02-02T08:41:19.824Z,65.57
2023-02-02T08:42:21.820Z,65.78
2023-02-02T08:43:23.857Z,65.41
2023-02-02T08:44:27.911Z,65.33
2023-02-02T08:46:03.432Z,65.45
2023-02-02T08:47:06.909Z,65.92
2023-02-02T08:48:12.186Z,65.33
2023-02-02T08:49:15.494Z,65.33
2023-02-02T08:50:18.464Z,65.22
2023-02-02T08:51:20.672Z,66.01
2023-02-02T08:52:24.848Z,65.62
2023-02-02T08:53:28.922Z,65.58
2023-02-02T08:54:30.867Z,66.09
2023-02-02T08:55:32.835Z,65.70
2023-02-02T08:56:34.825Z,66.06
2023-02-02T08:57:37.111Z,65.61
2023-02-02T08:58:39.579Z,65.48
2023-02-02T08:59:41.580Z,65.19
2023-02-02T09:00:43.596Z,65.32
2023-02-02T09:01:45.645Z,65.63
2023-02-02T09:02:51.517Z,65.01
2023-02-02T09:04:16.388Z,65.43
2023-02-02T09:05:18.937Z,65.51
2023-02-02T09:06:21.487Z,65.46
2023-02-02T09:07:23.508Z,64.77
2023-02-02T09:08:25.654Z,64.81
2023-02-02T09:09:27.614Z,64.91
2023-02-02T09:10:32.204Z,64.42
2023-02-02T09:11:35.275Z,64.66
2023-02-02T09:12:37.207Z,64.39
2023-02-02T09:13:40.517Z,64.50
2023-02-02T09:14:42.420Z,64.46
2023-02-02T09:15:44.632Z,64.73
2023-02-02T09:16:46.692Z,64.56
2023-02-02T09:17:48.952Z,64.95
2023-02-02T09:18:50.957Z,64.64
2023-02-02T09:19:52.912Z,65.18
2023-02-02T09:20:55.004Z,65.77
2023-02-02T09:21:57.303Z,65.67
2023-02-02T09:22:59.224Z,65.79
2023-02-02T09:24:01.394Z,65.48
2023-02-02T09:25:03.438Z,65.89
2023-02-02T09:26:17.270Z,65.88
2023-02-02T09:27:20.202Z,66.35
2023-02-02T09:28:22.199Z,66.47
2023-02-02T09:29:24.253Z,65.99
2023-02-02T09:30:26.500Z,66.49
2023-02-02T09:31:29.635Z,66.38
2023-02-02T09:32:34.284Z,66.36
2023-02-02T09:33:37.172Z,66.62
2023-02-02T09:34:40.194Z,66.56
2023-02-02T09:35:43.190Z,66.65
2023-02-02T09:36:45.436Z,66.93
2023-02-02T09:37:47.582Z,66.99
2023-02-02T09:38:51.205Z,66.81
2023-02-02T09:39:53.314Z,66.74
2023-02-02T09:40:55.293Z,67.33
2023-02-02T09:42:09.346Z,67.46
2023-02-02T09:43:42.968Z,67.32
2023-02-02T09:45:02.613Z,67.40
2023-02-02T09:46:40.682Z,67.27
2023-02-02T09:47:45.547Z,67.53
2023-02-02T09:49:08.363Z,66.72
2023-02-02T09:50:29.834Z,66.95
2023-02-02T09:51:43.841Z,66.75
2023-02-02T09:52:59.827Z,67.02
2023-02-02T09:54:28.151Z,67.03
2023-02-02T09:55:36.873Z,67.11
2023-02-02T09:56:43.793Z,67.32
2023-02-02T09:58:01.775Z,67.21
2023-02-02T09:59:19.374Z,67.50
2023-02-02T10:01:07.126Z,67.82
2023-02-02T10:02:40.784Z,67.15
2023-02-02T10:04:04.446Z,67.41
2023-02-02T10:05:15.476Z,67.27
2023-02-02T10:06:43.976Z,67.17
2023-02-02T10:07:52.281Z,67.40
2023-02-02T10:08:59.255Z,66.95
2023-02-02T10:11:55.721Z,66.59
2023-02-02T10:13:06.933Z,66.86
2023-02-02T10:14:20.447Z,67.43
2023-02-02T10:15:44.659Z,67.09
2023-02-02T10:16:49.809Z,67.51
2023-02-02T10:17:57.197Z,67.42
2023-02-02T10:19:10.195Z,68.50
2023-02-02T10:20:33.644Z,67.33
2023-02-02T10:21:35.987Z,67.25
2023-02-02T10:22:38.227Z,67.76
2023-02-02T10:23:44.445Z,68.44
2023-02-02T10:24:46.459Z,68.62
2023-02-02T10:26:22.623Z,67.82
2023-02-02T10:28:09.389Z,68.20
2023-02-02T10:29:11.223Z,68.30
2023-02-02T10:30:30.289Z,68.39
2023-02-02T10:31:32.304Z,68.48
2023-02-02T10:32:49.756Z,67.97
2023-02-02T10:34:16.462Z,68.41
2023-02-02T10:35:27.602Z,68.56
2023-02-02T10:36:40.227Z,67.94
2023-02-02T10:38:12.065Z,67.86
2023-02-02T10:39:36.187Z,67.80
2023-02-02T10:40:44.262Z,67.84
2023-02-02T10:42:23.103Z,67.62
2023-02-02T10:43:46.332Z,68.01
2023-02-02T10:45:08.725Z,67.30
2023-02-02T10:46:26.293Z,67.96
2023-02-02T10:47:32.360Z,68.04
2023-02-02T10:48:36.153Z,67.77
2023-02-02T10:49:40.275Z,68.05
2023-02-02T10:50:49.040Z,68.21
2023-02-02T10:52:13.914Z,68.42
2023-02-02T10:53:17.225Z,67.73
2023-02-02T10:54:55.816Z,68.21
2023-02-02T10:56:12.237Z,67.47
2023-02-02T10:57:20.015Z,67.71
2023-02-02T10:58:30.827Z,67.34
2023-02-02T10:59:36.041Z,67.82
2023-02-02T11:00:54.669Z,68.03
2023-02-02T11:02:08.637Z,68.52
2023-02-02T11:03:20.325Z,68.83
2023-02-02T11:04:41.903Z,68.16
2023-02-02T11:06:03.748Z,68.96
2023-02-02T11:07:05.758Z,68.82
2023-02-02T11:08:20.297Z,68.67
2023-02-02T11:09:26.592Z,68.99
2023-02-02T11:10:28.821Z,68.95
2023-02-02T11:11:40.061Z,68.95
2023-02-02T11:12:46.988Z,68.99
2023-02-02T11:14:15.679Z,68.70
2023-02-02T11:15:25.921Z,68.59
2023-02-02T11:16:41.437Z,68.72
2023-02-02T11:17:44.443Z,69.19
2023-02-02T11:18:46.585Z,68.97
2023-02-02T11:19:50.006Z,68.95
2023-02-02T11:20:52.030Z,68.96
2023-02-02T11:21:57.384Z,68.97
2023-02-02T11:23:04.464Z,69.59
2023-02-02T11:24:23.667Z,69.70
2023-02-02T11:25:37.189Z,70.07
2023-02-02T11:26:49.165Z,70.35
2023-02-02T11:27:51.902Z,70.46
2023-02-02T11:28:58.707Z,69.95
2023-02-02T11:30:22.995Z,70.30
2023-02-02T11:31:37.478Z,70.64
2023-02-02T11:32:39.630Z,70.56
2023-02-02T11:33:41.549Z,70.89
2023-02-02T11:34:43.559Z,71.00
2023-02-02T11:35:57.311Z,70.99
2023-02-02T11:37:22.270Z,70.60
2023-02-02T11:38:24.957Z,70.81
2023-02-02T11:39:28.130Z,71.12
2023-02-02T11:40:34.876Z,71.04
2023-02-02T11:41:38.706Z,70.88
2023-02-02T11:42:47.781Z,70.93
2023-02-02T11:43:55.358Z,70.77
2023-02-02T11:44:59.301Z,70.69
2023-02-02T11:46:17.939Z,70.77
2023-02-02T11:47:28.078Z,71.50
2023-02-02T11:48:38.646Z,71.03
2023-02-02T11:49:44.298Z,71.32
2023-02-02T11:50:49.628Z,71.33
2023-02-02T11:52:00.589Z,71.37
2023-02-02T11:53:02.868Z,71.62
2023-02-02T11:54:18.365Z,72.18
2023-02-02T11:55:27.357Z,71.94
2023-02-02T11:56:29.543Z,72.02
2023-02-02T11:57:31.748Z,72.13
2023-02-02T11:58:56.722Z,73.01
2023-02-02T12:00:10.731Z,72.25
2023-02-02T12:01:32.682Z,72.71
2023-02-02T12:02:34.838Z,72.85
2023-02-02T12:03:40.248Z,73.16
2023-02-02T12:04:42.486Z,73.06
2023-02-02T12:05:48.324Z,73.92
2023-02-02T12:06:50.580Z,73.44
2023-02-02T12:07:52.642Z,73.18
2023-02-02T12:08:58.729Z,72.78
2023-02-02T12:10:04.782Z,73.25
2023-02-02T12:11:10.610Z,73.73
2023-02-02T12:13:14.292Z,72.71
2023-02-02T12:14:43.326Z,73.11
2023-02-02T12:15:59.056Z,73.34
2023-02-02T12:17:00.978Z,73.31
2023-02-02T12:18:31.067Z,73.57
2023-02-02T12:19:56.599Z,73.82
2023-02-02T12:21:03.170Z,74.05
2023-02-02T12:22:30.636Z,73.29
2023-02-02T12:23:51.746Z,73.35
2023-02-02T12:25:03.634Z,74.19
2023-02-02T12:26:29.597Z,74.01
2023-02-02T12:27:57.919Z,74.37
2023-02-02T12:29:51.053Z,73.71
2023-02-02T12:31:07.213Z,74.50
2023-02-02T12:32:24.743Z,74.69
2023-02-02T12:33:39.541Z,73.75
2023-02-02T12:35:06.925Z,74.39
2023-02-02T12:36:27.491Z,73.67
2023-02-02T12:37:54.788Z,73.77
2023-02-02T12:39:17.384Z,74.24
2023-02-02T12:41:00.841Z,74.30
2023-02-02T12:42:27.807Z,74.42
2023-02-02T12:43:39.257Z,74.65
2023-02-02T12:44:55.870Z,74.70
2023-02-02T12:46:15.141Z,74.41
2023-02-02T12:47:35.486Z,74.54
2023-02-02T12:48:52.510Z,74.55
2023-02-02T12:49:56.972Z,73.42
2023-02-02T12:51:36.292Z,74.44
2023-02-02T12:52:41.286Z,74.67
2023-02-02T12:54:35.104Z,74.85
2023-02-02T12:55:41.708Z,74.39
2023-02-02T12:57:02.054Z,74.71
2023-02-02T12:58:25.147Z,74.07
2023-02-02T12:59:42.830Z,74.02
2023-02-02T13:01:29.043Z,74.34
2023-02-02T13:02:52.198Z,75.08
2023-02-02T13:04:07.121Z,74.41
2023-02-02T13:05:36.867Z,74.69
2023-02-02T13:07:02.814Z,75.00
2023-02-02T13:08:13.241Z,74.47
2023-02-02T13:09:20.472Z,75.61
2023-02-02T13:10:29.053Z,75.76
2023-02-02T13:11:56.075Z,75.45
2023-02-02T13:13:08.757Z,75.87
2023-02-02T13:14:20.535Z,75.91
2023-02-02T13:15:33.390Z,75.55
2023-02-02T13:16:38.180Z,75.91
2023-02-02T13:17:47.103Z,76.20
2023-02-02T13:18:57.105Z,76.34
2023-02-02T13:20:04.883Z,75.77
2023-02-02T13:21:15.403Z,76.03
2023-02-02T13:22:22.539Z,75.95
2023-02-02T13:23:34.234Z,75.66
2023-02-02T13:24:42.200Z,75.60
2023-02-02T13:25:52.484Z,75.59
2023-02-02T13:26:57.712Z,76.20
2023-02-02T13:28:01.020Z,75.80
2023-02-02T13:29:07.731Z,75.77
2023-02-02T13:30:31.696Z,75.36
2023-02-02T13:31:36.916Z,75.61
2023-02-02T13:32:43.909Z,76.18
2023-02-02T13:33:53.513Z,75.95
2023-02-02T13:35:03.534Z,75.86
2023-02-02T13:36:29.566Z,76.63
2023-02-02T13:37:51.802Z,75.86
2023-02-02T13:38:57.727Z,75.99
2023-02-02T13:40:03.678Z,76.14
2023-02-02T13:41:10.070Z,76.50
2023-02-02T13:42:30.759Z,75.94
2023-02-02T13:43:51.518Z,76.57
2023-02-02T13:45:00.252Z,76.39
2023-02-02T13:46:26.742Z,76.18
2023-02-02T13:47:44.814Z,75.96
2023-02-02T13:48:47.599Z,75.80
2023-02-02T13:49:58.662Z,75.97
2023-02-02T13:51:18.852Z,76.37
2023-02-02T13:52:51.091Z,76.16
2023-02-02T13:54:18.759Z,76.22
2023-02-02T13:55:34.322Z,76.27
2023-02-02T13:56:58.648Z,76.26
2023-02-02T13:58:44.619Z,76.55
2023-02-02T13:59:55.401Z,76.52
2023-02-02T14:01:03.264Z,76.29
2023-02-02T14:02:07.609Z,76.29
2023-02-02T14:03:32.297Z,76.01
2023-02-02T14:04:34.405Z,76.26
2023-02-02T14:05:42.221Z,76.12
2023-02-02T14:06:58.152Z,75.66
2023-02-02T14:08:19.537Z,75.73
2023-02-02T14:09:22.206Z,76.02
2023-02-02T14:10:42.267Z,75.71
2023-02-02T14:11:56.620Z,75.81
2023-02-02T14:13:30.273Z,75.67
2023-02-02T14:14:32.432Z,76.05
2023-02-02T14:15:43.973Z,76.47
2023-02-02T14:16:50.404Z,76.56
2023-02-02T14:17:55.162Z,76.04
2023-02-02T14:19:00.889Z,76.59
2023-02-02T14:20:06.757Z,76.18
2023-02-02T14:21:09.227Z,76.23
2023-02-02T14:22:12.345Z,76.17
2023-02-02T14:23:52.792Z,76.11
2023-02-02T14:24:54.972Z,76.06
2023-02-02T14:26:09.414Z,76.21
2023-02-02T14:27:11.539Z,76.30
2023-02-02T14:28:41.300Z,76.34
2023-02-02T14:29:46.994Z,75.66
2023-02-02T14:31:27.623Z,76.14
2023-02-02T14:32:34.538Z,76.13
2023-02-02T14:33:47.575Z,76.06